sensor_id;sensor_type;location;lat;lon;timestamp;pressure;altitude;pressure_sealevel;temperature;humidity
21359;BME280;13506;50.852;20.632;2023-02-23T00:01:34;98501.88;;;-1.97;97.93
21359;BME280;13506;50.852;20.632;2023-02-23T00:04:02;98494.00;;;-1.86;97.13
21359;BME280;13506;50.852;20.632;2023-02-23T00:06:33;98504.97;;;-1.79;95.86
21359;BME280;13506;50.852;20.632;2023-02-23T00:09:03;98509.66;;;-2.01;96.50
21359;BME280;13506;50.852;20.632;2023-02-23T00:11:37;98508.94;;;-2.08;98.58
21359;BME280;13506;50.852;20.632;2023-02-23T00:14:05;98504.06;;;-2.23;99.26
21359;BME280;13506;50.852;20.632;2023-02-23T00:16:34;98504.88;;;-2.20;99.21
21359;BME280;13506;50.852;20.632;2023-02-23T00:19:02;98506.63;;;-2.23;98.31
21359;BME280;13506;50.852;20.632;2023-02-23T00:21:35;98512.66;;;-2.24;99.31
21359;BME280;13506;50.852;20.632;2023-02-23T00:24:04;98506.59;;;-2.19;99.13
21359;BME280;13506;50.852;20.632;2023-02-23T00:26:35;98496.25;;;-2.14;98.79
21359;BME280;13506;50.852;20.632;2023-02-23T00:29:07;98504.06;;;-2.23;99.18
21359;BME280;13506;50.852;20.632;2023-02-23T00:31:35;98504.03;;;-2.20;99.18
21359;BME280;13506;50.852;20.632;2023-02-23T00:34:05;98500.88;;;-1.90;98.12
21359;BME280;13506;50.852;20.632;2023-02-23T00:36:35;98504.66;;;-2.08;97.65
21359;BME280;13506;50.852;20.632;2023-02-23T00:39:07;98498.25;;;-2.32;99.08
21359;BME280;13506;50.852;20.632;2023-02-23T00:41:43;98500.06;;;-2.37;99.00
21359;BME280;13506;50.852;20.632;2023-02-23T00:44:12;98497.13;;;-2.17;98.25
21359;BME280;13506;50.852;20.632;2023-02-23T00:46:42;98495.44;;;-2.16;97.94
21359;BME280;13506;50.852;20.632;2023-02-23T00:49:12;98492.78;;;-2.13;98.14
21359;BME280;13506;50.852;20.632;2023-02-23T00:51:42;98498.13;;;-2.25;98.30
21359;BME280;13506;50.852;20.632;2023-02-23T00:54:12;98497.69;;;-2.49;99.56
21359;BME280;13506;50.852;20.632;2023-02-23T00:56:41;98494.66;;;-2.71;100.00
21359;BME280;13506;50.852;20.632;2023-02-23T00:59:09;98488.56;;;-2.64;100.00
21359;BME280;13506;50.852;20.632;2023-02-23T01:01:38;98494.53;;;-2.63;100.00
21359;BME280;13506;50.852;20.632;2023-02-23T01:04:09;98496.97;;;-2.57;100.00
21359;BME280;13506;50.852;20.632;2023-02-23T01:06:39;98497.72;;;-2.51;99.83
21359;BME280;13506;50.852;20.632;2023-02-23T01:09:12;98488.53;;;-2.61;100.00
21359;BME280;13506;50.852;20.632;2023-02-23T01:11:41;98495.53;;;-2.72;100.00
21359;BME280;13506;50.852;20.632;2023-02-23T01:14:14;98490.44;;;-2.74;100.00
21359;BME280;13506;50.852;20.632;2023-02-23T01:16:42;98488.66;;;-2.70;100.00
21359;BME280;13506;50.852;20.632;2023-02-23T01:19:10;98490.88;;;-3.01;100.00
21359;BME280;13506;50.852;20.632;2023-02-23T01:21:41;98495.88;;;-2.95;100.00
21359;BME280;13506;50.852;20.632;2023-02-23T01:24:10;98482.97;;;-2.86;100.00
21359;BME280;13506;50.852;20.632;2023-02-23T01:26:41;98489.13;;;-2.99;100.00
21359;BME280;13506;50.852;20.632;2023-02-23T01:29:11;98496.22;;;-3.17;100.00
21359;BME280;13506;50.852;20.632;2023-02-23T01:31:40;98491.31;;;-3.32;100.00
21359;BME280;13506;50.852;20.632;2023-02-23T01:34:11;98484.38;;;-3.24;100.00
21359;BME280;13506;50.852;20.632;2023-02-23T01:36:41;98481.56;;;-3.07;100.00
21359;BME280;13506;50.852;20.632;2023-02-23T01:39:14;98480.75;;;-3.09;100.00
21359;BME280;13506;50.852;20.632;2023-02-23T01:41:43;98485.88;;;-3.11;100.00
21359;BME280;13506;50.852;20.632;2023-02-23T01:47:18;98477.63;;;-3.28;100.00
21359;BME280;13506;50.852;20.632;2023-02-23T01:49:46;98470.84;;;-3.32;100.00
21359;BME280;13506;50.852;20.632;2023-02-23T01:52:17;98479.44;;;-3.36;100.00
21359;BME280;13506;50.852;20.632;2023-02-23T01:54:51;98478.59;;;-3.37;100.00
21359;BME280;13506;50.852;20.632;2023-02-23T01:57:21;98477.88;;;-3.48;100.00
21359;BME280;13506;50.852;20.632;2023-02-23T01:59:53;98481.31;;;-3.47;100.00
21359;BME280;13506;50.852;20.632;2023-02-23T02:02:26;98472.97;;;-3.63;100.00
21359;BME280;13506;50.852;20.632;2023-02-23T02:04:59;98463.63;;;-3.64;100.00
21359;BME280;13506;50.852;20.632;2023-02-23T02:07:29;98463.88;;;-3.84;100.00
21359;BME280;13506;50.852;20.632;2023-02-23T02:10:02;98469.81;;;-3.82;100.00
21359;BME280;13506;50.852;20.632;2023-02-23T02:12:59;98462.91;;;-3.74;100.00
21359;BME280;13506;50.852;20.632;2023-02-23T02:15:35;98461.25;;;-3.78;100.00
21359;BME280;13506;50.852;20.632;2023-02-23T02:18:12;98457.09;;;-3.88;100.00
21359;BME280;13506;50.852;20.632;2023-02-23T02:21:15;98458.06;;;-3.99;100.00
21359;BME280;13506;50.852;20.632;2023-02-23T02:24:09;98450.94;;;-3.74;100.00
21359;BME280;13506;50.852;20.632;2023-02-23T02:26:50;98453.75;;;-3.92;100.00
21359;BME280;13506;50.852;20.632;2023-02-23T02:29:45;98457.03;;;-3.82;100.00
21359;BME280;13506;50.852;20.632;2023-02-23T02:36:10;98455.50;;;-3.96;100.00
21359;BME280;13506;50.852;20.632;2023-02-23T02:38:52;98459.72;;;-3.95;100.00
21359;BME280;13506;50.852;20.632;2023-02-23T02:41:31;98450.38;;;-3.94;100.00
21359;BME280;13506;50.852;20.632;2023-02-23T02:44:13;98446.25;;;-4.04;100.00
21359;BME280;13506;50.852;20.632;2023-02-23T02:46:46;98443.69;;;-4.04;100.00
21359;BME280;13506;50.852;20.632;2023-02-23T02:49:25;98443.69;;;-4.06;100.00
21359;BME280;13506;50.852;20.632;2023-02-23T02:51:59;98445.47;;;-4.11;100.00
21359;BME280;13506;50.852;20.632;2023-02-23T02:54:36;98441.06;;;-4.01;100.00
21359;BME280;13506;50.852;20.632;2023-02-23T02:57:06;98449.56;;;-3.98;100.00
21359;BME280;13506;50.852;20.632;2023-02-23T02:59:47;98440.91;;;-3.87;100.00
21359;BME280;13506;50.852;20.632;2023-02-23T03:02:35;98450.25;;;-3.85;100.00
21359;BME280;13506;50.852;20.632;2023-02-23T03:05:24;98449.47;;;-3.90;100.00
21359;BME280;13506;50.852;20.632;2023-02-23T03:08:21;98446.09;;;-3.94;100.00
21359;BME280;13506;50.852;20.632;2023-02-23T03:11:11;98452.75;;;-3.79;100.00
21359;BME280;13506;50.852;20.632;2023-02-23T03:14:07;98451.09;;;-3.84;100.00
21359;BME280;13506;50.852;20.632;2023-02-23T03:17:02;98450.19;;;-3.80;100.00
21359;BME280;13506;50.852;20.632;2023-02-23T03:19:56;98447.78;;;-3.93;100.00
21359;BME280;13506;50.852;20.632;2023-02-23T03:22:50;98459.72;;;-3.92;100.00
21359;BME280;13506;50.852;20.632;2023-02-23T03:25:47;98452.75;;;-3.80;100.00
21359;BME280;13506;50.852;20.632;2023-02-23T03:28:45;98447.78;;;-3.93;100.00
21359;BME280;13506;50.852;20.632;2023-02-23T03:31:39;98452.81;;;-3.83;100.00
21359;BME280;13506;50.852;20.632;2023-02-23T03:34:35;98438.31;;;-3.83;100.00
21359;BME280;13506;50.852;20.632;2023-02-23T03:37:29;98449.25;;;-3.73;100.00
21359;BME280;13506;50.852;20.632;2023-02-23T03:40:19;98447.53;;;-3.71;100.00
21359;BME280;13506;50.852;20.632;2023-02-23T03:43:10;98441.53;;;-3.67;100.00
21359;BME280;13506;50.852;20.632;2023-02-23T03:46:00;98442.56;;;-3.83;100.00
21359;BME280;13506;50.852;20.632;2023-02-23T03:48:49;98441.66;;;-3.79;100.00
21359;BME280;13506;50.852;20.632;2023-02-23T03:51:39;98446.44;;;-3.55;100.00
21359;BME280;13506;50.852;20.632;2023-02-23T03:54:32;98440.34;;;-3.44;99.93
21359;BME280;13506;50.852;20.632;2023-02-23T03:57:20;98432.88;;;-3.60;100.00
21359;BME280;13506;50.852;20.632;2023-02-23T04:00:09;98429.13;;;-3.98;100.00
21359;BME280;13506;50.852;20.632;2023-02-23T04:02:59;98439.34;;;-3.98;100.00
21359;BME280;13506;50.852;20.632;2023-02-23T04:05:47;98433.66;;;-4.23;100.00
21359;BME280;13506;50.852;20.632;2023-02-23T04:08:37;98434.56;;;-4.25;100.00
21359;BME280;13506;50.852;20.632;2023-02-23T04:11:29;98416.75;;;-4.33;100.00
21359;BME280;13506;50.852;20.632;2023-02-23T04:14:20;98432.06;;;-4.33;100.00
21359;BME280;13506;50.852;20.632;2023-02-23T04:16:50;98426.03;;;-4.24;100.00
21359;BME280;13506;50.852;20.632;2023-02-23T04:19:19;98432.72;;;-4.14;100.00
21359;BME280;13506;50.852;20.632;2023-02-23T04:21:47;98430.28;;;-4.25;100.00
21359;BME280;13506;50.852;20.632;2023-02-23T04:24:15;98432.84;;;-4.26;100.00
21359;BME280;13506;50.852;20.632;2023-02-23T04:26:43;98431.81;;;-4.10;100.00
21359;BME280;13506;50.852;20.632;2023-02-23T04:29:11;98430.84;;;-4.00;100.00
21359;BME280;13506;50.852;20.632;2023-02-23T04:31:40;98434.50;;;-4.19;100.00
21359;BME280;13506;50.852;20.632;2023-02-23T04:34:08;98413.78;;;-3.98;100.00
21359;BME280;13506;50.852;20.632;2023-02-23T04:36:37;98425.03;;;-4.11;100.00
21359;BME280;13506;50.852;20.632;2023-02-23T04:39:06;98420.19;;;-4.34;100.00
21359;BME280;13506;50.852;20.632;2023-02-23T04:41:34;98415.22;;;-4.48;100.00
21359;BME280;13506;50.852;20.632;2023-02-23T04:44:02;98414.34;;;-4.45;100.00
21359;BME280;13506;50.852;20.632;2023-02-23T04:46:30;98420.53;;;-4.69;100.00
21359;BME280;13506;50.852;20.632;2023-02-23T04:48:58;98409.50;;;-4.70;100.00
21359;BME280;13506;50.852;20.632;2023-02-23T04:51:26;98413.59;;;-4.57;100.00
21359;BME280;13506;50.852;20.632;2023-02-23T04:53:59;98418.72;;;-4.55;100.00
21359;BME280;13506;50.852;20.632;2023-02-23T04:56:27;98414.44;;;-4.53;100.00
21359;BME280;13506;50.852;20.632;2023-02-23T04:58:55;98404.88;;;-4.34;100.00
21359;BME280;13506;50.852;20.632;2023-02-23T05:01:23;98410.88;;;-4.40;100.00
21359;BME280;13506;50.852;20.632;2023-02-23T05:03:52;98413.47;;;-4.43;100.00
21359;BME280;13506;50.852;20.632;2023-02-23T05:06:20;98413.59;;;-4.54;100.00
21359;BME280;13506;50.852;20.632;2023-02-23T05:08:48;98411.06;;;-4.55;100.00
21359;BME280;13506;50.852;20.632;2023-02-23T05:11:17;98400.91;;;-4.64;100.00
21359;BME280;13506;50.852;20.632;2023-02-23T05:13:45;98410.09;;;-4.48;100.00
21359;BME280;13506;50.852;20.632;2023-02-23T05:16:13;98410.38;;;-4.74;100.00
21359;BME280;13506;50.852;20.632;2023-02-23T05:18:44;98412.78;;;-4.60;100.00
21359;BME280;13506;50.852;20.632;2023-02-23T05:21:13;98415.16;;;-4.40;100.00
21359;BME280;13506;50.852;20.632;2023-02-23T05:23:40;98414.53;;;-4.64;100.00
21359;BME280;13506;50.852;20.632;2023-02-23T05:26:11;98423.00;;;-4.59;100.00
21359;BME280;13506;50.852;20.632;2023-02-23T05:28:42;98419.50;;;-4.50;100.00
21359;BME280;13506;50.852;20.632;2023-02-23T05:31:11;98414.44;;;-4.51;100.00
21359;BME280;13506;50.852;20.632;2023-02-23T05:33:38;98425.53;;;-4.56;100.00
21359;BME280;13506;50.852;20.632;2023-02-23T05:36:09;98418.59;;;-4.46;100.00
21359;BME280;13506;50.852;20.632;2023-02-23T05:38:37;98419.53;;;-4.51;100.00
21359;BME280;13506;50.852;20.632;2023-02-23T05:41:06;98425.31;;;-4.37;100.00
21359;BME280;13506;50.852;20.632;2023-02-23T05:43:34;98425.31;;;-4.37;100.00
21359;BME280;13506;50.852;20.632;2023-02-23T05:46:06;98424.53;;;-4.41;100.00
21359;BME280;13506;50.852;20.632;2023-02-23T05:48:36;98424.53;;;-4.41;100.00
21359;BME280;13506;50.852;20.632;2023-02-23T05:51:05;98424.91;;;-4.03;100.00
21359;BME280;13506;50.852;20.632;2023-02-23T05:53:34;98424.75;;;-3.89;100.00
21359;BME280;13506;50.852;20.632;2023-02-23T05:56:04;98427.88;;;-3.67;100.00
21359;BME280;13506;50.852;20.632;2023-02-23T05:58:32;98424.13;;;-3.43;100.00
21359;BME280;13506;50.852;20.632;2023-02-23T06:01:01;98410.59;;;-2.97;100.00
21359;BME280;13506;50.852;20.632;2023-02-23T06:03:30;98423.66;;;-2.61;100.00
21359;BME280;13506;50.852;20.632;2023-02-23T06:05:59;98427.38;;;-2.78;100.00
21359;BME280;13506;50.852;20.632;2023-02-23T06:08:27;98428.91;;;-2.22;98.96
21359;BME280;13506;50.852;20.632;2023-02-23T06:10:55;98421.72;;;-2.05;97.62
21359;BME280;13506;50.852;20.632;2023-02-23T06:13:23;98417.25;;;-1.55;96.22
21359;BME280;13506;50.852;20.632;2023-02-23T06:15:52;98424.13;;;-1.19;94.37
21359;BME280;13506;50.852;20.632;2023-02-23T06:18:19;98428.69;;;-1.31;92.32
21359;BME280;13506;50.852;20.632;2023-02-23T06:20:49;98426.19;;;-0.31;90.28
21359;BME280;13506;50.852;20.632;2023-02-23T06:23:18;98427.41;;;-0.44;88.50
21359;BME280;13506;50.852;20.632;2023-02-23T06:25:46;98432.28;;;0.56;87.41
21359;BME280;13506;50.852;20.632;2023-02-23T06:28:14;98439.59;;;0.42;87.12
21359;BME280;13506;50.852;20.632;2023-02-23T06:30:42;98437.03;;;0.96;84.38
21359;BME280;13506;50.852;20.632;2023-02-23T06:33:12;98431.41;;;1.12;82.92
21359;BME280;13506;50.852;20.632;2023-02-23T06:35:40;98430.97;;;1.51;82.23
21359;BME280;13506;50.852;20.632;2023-02-23T06:38:09;98442.84;;;1.55;80.98
21359;BME280;13506;50.852;20.632;2023-02-23T06:40:38;98429.91;;;2.05;79.53
21359;BME280;13506;50.852;20.632;2023-02-23T06:43:07;98434.41;;;2.24;78.08
21359;BME280;13506;50.852;20.632;2023-02-23T06:45:35;98439.72;;;2.88;76.50
21359;BME280;13506;50.852;20.632;2023-02-23T06:48:04;98434.84;;;2.80;74.90
21359;BME280;13506;50.852;20.632;2023-02-23T06:50:33;98438.31;;;3.44;75.13
21359;BME280;13506;50.852;20.632;2023-02-23T06:53:01;98435.47;;;2.87;75.09
21359;BME280;13506;50.852;20.632;2023-02-23T06:55:30;98429.78;;;2.99;75.97
21359;BME280;13506;50.852;20.632;2023-02-23T06:57:58;98440.00;;;2.80;76.95
21359;BME280;13506;50.852;20.632;2023-02-23T07:00:26;98427.81;;;1.91;80.81
21359;BME280;13506;50.852;20.632;2023-02-23T07:02:56;98437.69;;;1.55;82.82
21359;BME280;13506;50.852;20.632;2023-02-23T07:05:25;98446.53;;;0.40;88.67
21359;BME280;13506;50.852;20.632;2023-02-23T07:07:53;98438.56;;;-0.12;89.43
21359;BME280;13506;50.852;20.632;2023-02-23T07:10:21;98437.63;;;-0.41;93.32
21359;BME280;13506;50.852;20.632;2023-02-23T07:12:51;98443.09;;;-0.55;94.27
21359;BME280;13506;50.852;20.632;2023-02-23T07:15:20;98441.94;;;-1.12;98.36
21359;BME280;13506;50.852;20.632;2023-02-23T07:17:48;98448.34;;;-1.30;100.00
21359;BME280;13506;50.852;20.632;2023-02-23T07:20:18;98445.63;;;-1.62;100.00
21359;BME280;13506;50.852;20.632;2023-02-23T07:22:46;98440.50;;;-2.03;100.00
21359;BME280;13506;50.852;20.632;2023-02-23T07:25:14;98445.22;;;-2.26;100.00
21359;BME280;13506;50.852;20.632;2023-02-23T07:27:42;98446.19;;;-2.34;100.00
21359;BME280;13506;50.852;20.632;2023-02-23T07:30:13;98436.63;;;-2.24;100.00
21359;BME280;13506;50.852;20.632;2023-02-23T07:32:43;98438.28;;;-2.21;100.00
21359;BME280;13506;50.852;20.632;2023-02-23T07:35:11;98441.44;;;-2.09;100.00
21359;BME280;13506;50.852;20.632;2023-02-23T07:37:39;98452.22;;;-2.36;100.00
21359;BME280;13506;50.852;20.632;2023-02-23T07:40:08;98439.63;;;-2.49;100.00
21359;BME280;13506;50.852;20.632;2023-02-23T07:42:36;98418.47;;;-2.13;100.00
21359;BME280;13506;50.852;20.632;2023-02-23T07:45:07;98432.13;;;-2.13;100.00
21359;BME280;13506;50.852;20.632;2023-02-23T07:47:36;98421.66;;;-2.02;100.00
21359;BME280;13506;50.852;20.632;2023-02-23T07:50:06;98416.03;;;-2.19;100.00
21359;BME280;13506;50.852;20.632;2023-02-23T07:52:36;98423.22;;;-1.93;100.00
21359;BME280;13506;50.852;20.632;2023-02-23T07:55:05;98424.97;;;-1.55;100.00
21359;BME280;13506;50.852;20.632;2023-02-23T07:57:34;98416.91;;;-1.78;100.00
21359;BME280;13506;50.852;20.632;2023-02-23T08:00:03;98426.91;;;-1.66;100.00
21359;BME280;13506;50.852;20.632;2023-02-23T08:02:40;98425.81;;;-1.17;100.00
21359;BME280;13506;50.852;20.632;2023-02-23T08:05:08;98415.84;;;-0.95;100.00
21359;BME280;13506;50.852;20.632;2023-02-23T08:07:36;98412.25;;;-0.53;99.91
21359;BME280;13506;50.852;20.632;2023-02-23T08:10:05;98415.00;;;-0.28;99.02
21359;BME280;13506;50.852;20.632;2023-02-23T08:12:32;98420.03;;;-0.25;97.67
21359;BME280;13506;50.852;20.632;2023-02-23T08:15:01;98411.97;;;-0.11;97.60
21359;BME280;13506;50.852;20.632;2023-02-23T08:17:33;98414.22;;;-0.00;97.62
21359;BME280;13506;50.852;20.632;2023-02-23T08:20:04;98413.47;;;0.82;95.33
21359;BME280;13506;50.852;20.632;2023-02-23T08:22:32;98423.31;;;1.23;91.97
21359;BME280;13506;50.852;20.632;2023-02-23T08:25:00;98407.78;;;0.99;90.90
21359;BME280;13506;50.852;20.632;2023-02-23T08:27:33;98411.13;;;1.28;89.38
21359;BME280;13506;50.852;20.632;2023-02-23T08:30:02;98409.25;;;1.58;90.17
21359;BME280;13506;50.852;20.632;2023-02-23T08:32:32;98401.16;;;1.44;88.46
21359;BME280;13506;50.852;20.632;2023-02-23T08:35:03;98417.34;;;1.22;90.12
21359;BME280;13506;50.852;20.632;2023-02-23T08:37:32;98415.31;;;1.30;89.97
21359;BME280;13506;50.852;20.632;2023-02-23T08:40:00;98415.06;;;1.38;89.32
21359;BME280;13506;50.852;20.632;2023-02-23T08:42:28;98411.44;;;0.92;89.67
21359;BME280;13506;50.852;20.632;2023-02-23T08:44:56;98416.47;;;0.40;92.58
21359;BME280;13506;50.852;20.632;2023-02-23T08:47:26;98413.09;;;0.38;93.08
21359;BME280;13506;50.852;20.632;2023-02-23T08:49:55;98409.09;;;0.57;92.78
21359;BME280;13506;50.852;20.632;2023-02-23T08:52:24;98404.22;;;0.48;92.96
21359;BME280;13506;50.852;20.632;2023-02-23T08:54:52;98416.00;;;0.55;92.47
21359;BME280;13506;50.852;20.632;2023-02-23T08:57:20;98395.97;;;0.92;90.76
21359;BME280;13506;50.852;20.632;2023-02-23T08:59:48;98401.50;;;0.53;91.82
21359;BME280;13506;50.852;20.632;2023-02-23T09:02:16;98406.56;;;0.28;93.78
21359;BME280;13506;50.852;20.632;2023-02-23T09:04:44;98407.31;;;0.60;92.79
21359;BME280;13506;50.852;20.632;2023-02-23T09:07:15;98401.78;;;0.72;92.71
21359;BME280;13506;50.852;20.632;2023-02-23T09:09:51;98398.56;;;0.65;91.67
21359;BME280;13506;50.852;20.632;2023-02-23T09:12:19;98399.00;;;1.05;90.51
21359;BME280;13506;50.852;20.632;2023-02-23T09:14:47;98381.47;;;1.41;90.08
21359;BME280;13506;50.852;20.632;2023-02-23T09:17:16;98395.56;;;0.77;91.06
21359;BME280;13506;50.852;20.632;2023-02-23T09:19:44;98389.00;;;0.95;91.51
21359;BME280;13506;50.852;20.632;2023-02-23T09:22:12;98386.97;;;1.05;90.66
21359;BME280;13506;50.852;20.632;2023-02-23T09:24:40;98389.63;;;1.29;90.75
21359;BME280;13506;50.852;20.632;2023-02-23T09:27:10;98385.75;;;1.66;89.65
21359;BME280;13506;50.852;20.632;2023-02-23T09:29:40;98385.09;;;1.35;89.09
21359;BME280;13506;50.852;20.632;2023-02-23T09:32:09;98381.16;;;1.97;88.04
21359;BME280;13506;50.852;20.632;2023-02-23T09:34:37;98381.06;;;2.00;85.75
21359;BME280;13506;50.852;20.632;2023-02-23T09:37:05;98381.22;;;1.96;84.74
21359;BME280;13506;50.852;20.632;2023-02-23T09:39:33;98369.88;;;2.00;85.18
21359;BME280;13506;50.852;20.632;2023-02-23T09:42:11;98371.28;;;1.85;85.29
21359;BME280;13506;50.852;20.632;2023-02-23T09:45:03;98381.75;;;1.82;86.35
21359;BME280;13506;50.852;20.632;2023-02-23T09:47:44;98377.25;;;1.87;86.47
21359;BME280;13506;50.852;20.632;2023-02-23T09:50:21;98377.03;;;1.70;86.32
21359;BME280;13506;50.852;20.632;2023-02-23T09:52:57;98372.91;;;2.35;84.14
21359;BME280;13506;50.852;20.632;2023-02-23T09:55:26;98375.25;;;2.41;83.70
21359;BME280;13506;50.852;20.632;2023-02-23T09:58:01;98367.56;;;2.84;82.75
21359;BME280;13506;50.852;20.632;2023-02-23T10:00:36;98373.06;;;2.54;82.29
21359;BME280;13506;50.852;20.632;2023-02-23T10:03:20;98369.25;;;2.17;82.57
21359;BME280;13506;50.852;20.632;2023-02-23T10:05:57;98362.66;;;2.32;83.47
21359;BME280;13506;50.852;20.632;2023-02-23T10:08:41;98366.97;;;2.55;82.37
21359;BME280;13506;50.852;20.632;2023-02-23T10:11:22;98370.31;;;2.35;82.40
21359;BME280;13506;50.852;20.632;2023-02-23T10:14:02;98365.50;;;2.92;81.16
21359;BME280;13506;50.852;20.632;2023-02-23T10:16:42;98359.19;;;3.19;80.03
21359;BME280;13506;50.852;20.632;2023-02-23T10:19:19;98368.31;;;3.28;79.61
21359;BME280;13506;50.852;20.632;2023-02-23T10:21:55;98346.84;;;3.06;80.00
21359;BME280;13506;50.852;20.632;2023-02-23T10:24:27;98363.06;;;3.09;78.53
21359;BME280;13506;50.852;20.632;2023-02-23T10:27:01;98370.59;;;2.93;79.54
21359;BME280;13506;50.852;20.632;2023-02-23T10:29:35;98355.44;;;2.64;79.97
21359;BME280;13506;50.852;20.632;2023-02-23T10:32:14;98355.44;;;2.64;80.42
21359;BME280;13506;50.852;20.632;2023-02-23T10:34:44;98344.03;;;2.69;80.16
21359;BME280;13506;50.852;20.632;2023-02-23T10:37:16;98346.25;;;2.99;79.27
21359;BME280;13506;50.852;20.632;2023-02-23T10:39:44;98350.13;;;2.89;79.19
21359;BME280;13506;50.852;20.632;2023-02-23T10:42:16;98337.00;;;2.93;79.07
21359;BME280;13506;50.852;20.632;2023-02-23T10:44:49;98333.56;;;3.15;78.19
21359;BME280;13506;50.852;20.632;2023-02-23T10:47:19;98331.03;;;3.13;78.96
21359;BME280;13506;50.852;20.632;2023-02-23T10:49:50;98338.56;;;3.38;78.31
21359;BME280;13506;50.852;20.632;2023-02-23T10:52:21;98323.06;;;3.38;77.34
21359;BME280;13506;50.852;20.632;2023-02-23T10:54:51;98326.44;;;3.20;77.35
21359;BME280;13506;50.852;20.632;2023-02-23T10:57:22;98319.53;;;3.60;77.86
21359;BME280;13506;50.852;20.632;2023-02-23T11:00:07;98316.50;;;3.50;76.71
21359;BME280;13506;50.852;20.632;2023-02-23T11:02:35;98317.09;;;3.95;76.52
21359;BME280;13506;50.852;20.632;2023-02-23T11:05:05;98323.94;;;3.96;75.43
21359;BME280;13506;50.852;20.632;2023-02-23T11:07:33;98319.03;;;4.28;72.06
21359;BME280;13506;50.852;20.632;2023-02-23T11:10:23;98307.34;;;4.55;71.44
21359;BME280;13506;50.852;20.632;2023-02-23T11:12:52;98302.97;;;5.10;72.32
21359;BME280;13506;50.852;20.632;2023-02-23T11:15:27;98279.94;;;5.37;69.08
21359;BME280;13506;50.852;20.632;2023-02-23T11:17:56;98291.75;;;5.76;67.40
21359;BME280;13506;50.852;20.632;2023-02-23T11:20:29;98281.88;;;5.33;68.95
21359;BME280;13506;50.852;20.632;2023-02-23T11:22:59;98280.69;;;5.39;69.62
21359;BME280;13506;50.852;20.632;2023-02-23T11:25:28;98300.53;;;5.06;67.83
21359;BME280;13506;50.852;20.632;2023-02-23T11:27:58;98295.31;;;4.89;69.42
21359;BME280;13506;50.852;20.632;2023-02-23T11:30:33;98289.06;;;4.58;72.63
21359;BME280;13506;50.852;20.632;2023-02-23T11:33:04;98282.44;;;4.53;72.65
21359;BME280;13506;50.852;20.632;2023-02-23T11:35:37;98285.03;;;4.16;72.83
21359;BME280;13506;50.852;20.632;2023-02-23T11:38:20;98280.50;;;3.46;75.11
21359;BME280;13506;50.852;20.632;2023-02-23T11:40:59;98275.84;;;3.73;76.02
21359;BME280;13506;50.852;20.632;2023-02-23T11:43:28;98265.59;;;4.08;75.04
21359;BME280;13506;50.852;20.632;2023-02-23T11:45:59;98274.78;;;3.77;75.34
21359;BME280;13506;50.852;20.632;2023-02-23T11:48:32;98263.66;;;3.94;75.43
21359;BME280;13506;50.852;20.632;2023-02-23T11:51:00;98265.28;;;4.14;75.00
21359;BME280;13506;50.852;20.632;2023-02-23T11:53:33;98259.47;;;4.45;73.25
21359;BME280;13506;50.852;20.632;2023-02-23T11:56:03;98257.53;;;4.50;73.82
21359;BME280;13506;50.852;20.632;2023-02-23T11:58:41;98247.53;;;4.25;74.77
21359;BME280;13506;50.852;20.632;2023-02-23T12:01:14;98232.94;;;4.22;75.03
21359;BME280;13506;50.852;20.632;2023-02-23T12:03:46;98237.50;;;4.00;76.12
21359;BME280;13506;50.852;20.632;2023-02-23T12:06:26;98243.81;;;3.75;76.53
21359;BME280;13506;50.852;20.632;2023-02-23T12:09:00;98253.41;;;4.10;75.30
21359;BME280;13506;50.852;20.632;2023-02-23T12:11:34;98230.53;;;3.45;76.46
21359;BME280;13506;50.852;20.632;2023-02-23T12:14:11;98215.28;;;3.58;77.75
21359;BME280;13506;50.852;20.632;2023-02-23T12:16:48;98229.13;;;3.57;77.37
21359;BME280;13506;50.852;20.632;2023-02-23T12:19:24;98225.03;;;3.53;77.30
21359;BME280;13506;50.852;20.632;2023-02-23T12:22:01;98211.91;;;3.94;76.36
21359;BME280;13506;50.852;20.632;2023-02-23T12:24:41;98211.94;;;3.75;76.62
21359;BME280;13506;50.852;20.632;2023-02-23T12:27:13;98217.72;;;4.16;75.80
21359;BME280;13506;50.852;20.632;2023-02-23T12:29:57;98207.00;;;4.41;75.39
21359;BME280;13506;50.852;20.632;2023-02-23T12:32:36;98200.75;;;4.63;73.94
21359;BME280;13506;50.852;20.632;2023-02-23T12:35:11;98196.25;;;4.32;74.73
21359;BME280;13506;50.852;20.632;2023-02-23T12:37:46;98204.25;;;4.44;73.62
21359;BME280;13506;50.852;20.632;2023-02-23T12:40:18;98200.81;;;4.09;74.83
21359;BME280;13506;50.852;20.632;2023-02-23T12:42:55;98198.63;;;3.82;76.30
21359;BME280;13506;50.852;20.632;2023-02-23T12:45:30;98207.00;;;3.88;76.33
21359;BME280;13506;50.852;20.632;2023-02-23T12:48:12;98185.22;;;3.74;77.53
21359;BME280;13506;50.852;20.632;2023-02-23T12:50:47;98182.75;;;4.08;76.43
21359;BME280;13506;50.852;20.632;2023-02-23T12:53:21;98179.19;;;4.10;77.09
21359;BME280;13506;50.852;20.632;2023-02-23T12:56:03;98174.16;;;4.07;77.14
21359;BME280;13506;50.852;20.632;2023-02-23T12:58:42;98164.19;;;4.34;76.37
21359;BME280;13506;50.852;20.632;2023-02-23T13:01:20;98168.38;;;4.37;76.68
21359;BME280;13506;50.852;20.632;2023-02-23T13:06:57;98169.38;;;4.34;76.99
21359;BME280;13506;50.852;20.632;2023-02-23T13:09:41;98170.03;;;4.55;75.17
21359;BME280;13506;50.852;20.632;2023-02-23T13:12:37;98167.25;;;4.42;75.83
21359;BME280;13506;50.852;20.632;2023-02-23T13:15:17;98161.66;;;4.33;75.97
21359;BME280;13506;50.852;20.632;2023-02-23T13:17:52;98172.16;;;4.64;74.97
21359;BME280;13506;50.852;20.632;2023-02-23T13:20:29;98172.72;;;4.54;75.43
21359;BME280;13506;50.852;20.632;2023-02-23T13:23:08;98165.75;;;4.54;75.98
21359;BME280;13506;50.852;20.632;2023-02-23T13:25:45;98161.97;;;4.61;75.63
21359;BME280;13506;50.852;20.632;2023-02-23T13:28:19;98160.13;;;4.63;76.67
21359;BME280;13506;50.852;20.632;2023-02-23T13:30:48;98160.94;;;4.48;76.65
21359;BME280;13506;50.852;20.632;2023-02-23T13:33:24;98160.53;;;4.03;77.75